createdAt,value
2017-12-04T00:02:33.896Z,3.77
2017-12-04T00:08:02.035Z,5.10
2017-12-04T00:13:30.953Z,5.17
2017-12-04T00:18:59.110Z,2.90
2017-12-04T00:24:28.236Z,4.43
2017-12-04T00:29:59.124Z,4.07
2017-12-04T00:35:28.023Z,3.87
2017-12-04T00:40:56.482Z,4.47
2017-12-04T00:46:25.410Z,4.40
2017-12-04T00:51:53.548Z,3.20
2017-12-04T00:57:22.440Z,4.00
2017-12-04T01:02:50.820Z,4.30
2017-12-04T01:08:18.958Z,2.87
2017-12-04T01:13:47.098Z,2.93
2017-12-04T01:19:15.243Z,3.23
2017-12-04T01:24:43.394Z,4.50
2017-12-04T01:30:11.535Z,3.33
2017-12-04T01:35:39.666Z,3.57
2017-12-04T01:41:08.116Z,3.10
2017-12-04T01:46:36.534Z,4.20
2017-12-04T01:52:07.369Z,4.57
2017-12-04T01:57:35.512Z,3.97
2017-12-04T02:03:04.423Z,3.47
2017-12-04T02:08:32.579Z,4.00
2017-12-04T02:14:00.744Z,4.50
2017-12-04T02:19:32.949Z,5.00
2017-12-04T02:25:01.358Z,4.73
2017-12-04T02:30:29.508Z,4.47
2017-12-04T02:35:58.457Z,3.63
2017-12-04T02:41:26.630Z,4.97
2017-12-04T02:46:54.789Z,3.70
2017-12-04T02:52:22.966Z,4.00
2017-12-04T02:57:51.101Z,3.90
2017-12-04T03:03:19.516Z,5.00
2017-12-04T03:08:47.648Z,4.10
2017-12-04T03:14:24.446Z,4.23
2017-12-04T03:19:52.617Z,4.83
2017-12-04T03:25:21.544Z,5.27
2017-12-04T03:30:50.450Z,5.37
2017-12-04T03:36:19.528Z,4.63
2017-12-04T03:41:48.471Z,5.40
2017-12-04T03:47:17.405Z,5.20
2017-12-04T03:52:46.300Z,5.67
2017-12-04T03:58:14.501Z,6.10
2017-12-04T04:03:42.668Z,5.90
2017-12-04T04:09:10.797Z,4.47
2017-12-04T04:14:39.705Z,3.60
2017-12-04T04:20:07.865Z,6.60
2017-12-04T04:25:37.936Z,6.00
2017-12-04T04:31:06.094Z,6.00
2017-12-04T04:36:34.238Z,5.27
2017-12-04T04:42:21.562Z,6.60
2017-12-04T04:47:50.021Z,4.50
2017-12-04T04:53:18.174Z,5.77
2017-12-04T04:58:46.319Z,5.77
2017-12-04T05:04:14.475Z,4.50
2017-12-04T05:09:46.024Z,5.50
2017-12-04T05:15:14.949Z,7.27
2017-12-04T05:20:43.855Z,4.20
2017-12-04T05:26:12.322Z,7.47
2017-12-04T05:31:47.013Z,5.67
2017-12-04T05:37:20.140Z,7.07
2017-12-04T05:42:49.050Z,5.50
2017-12-04T05:48:19.170Z,6.83
2017-12-04T05:53:47.321Z,6.20
2017-12-04T05:59:15.477Z,7.40
2017-12-04T06:04:43.627Z,8.50
2017-12-04T06:10:13.526Z,9.70
2017-12-04T06:15:41.691Z,6.20
2017-12-04T06:21:09.972Z,6.80
2017-12-04T06:26:40.883Z,6.40
2017-12-04T06:32:09.024Z,6.73
2017-12-04T06:37:38.915Z,4.80
2017-12-04T06:43:07.061Z,7.23
2017-12-04T06:48:35.220Z,8.17
2017-12-04T06:54:03.390Z,5.00
2017-12-04T06:59:31.531Z,6.00
2017-12-04T07:05:00.344Z,5.70
2017-12-04T07:10:28.521Z,7.17
2017-12-04T07:15:57.432Z,6.33
2017-12-04T07:21:25.880Z,5.30
2017-12-04T07:26:54.032Z,7.23
2017-12-04T07:32:22.172Z,6.63
2017-12-04T07:37:50.319Z,6.73
2017-12-04T07:43:19.200Z,6.97
2017-12-04T07:48:47.356Z,5.70
2017-12-04T07:54:20.028Z,4.97
2017-12-04T07:59:48.171Z,5.70
2017-12-04T08:05:16.324Z,7.10
2017-12-04T08:10:44.540Z,4.07
2017-12-04T08:16:13.416Z,4.67
2017-12-04T08:21:42.482Z,5.80
2017-12-04T08:27:10.712Z,6.90
2017-12-04T08:32:39.198Z,6.73
2017-12-04T08:38:07.342Z,7.20
2017-12-04T08:43:36.600Z,4.70
2017-12-04T08:49:04.734Z,5.30
2017-12-04T08:54:32.931Z,4.13
2017-12-04T09:00:07.684Z,4.53
2017-12-04T09:05:46.528Z,4.50
2017-12-04T09:11:14.674Z,3.83
2017-12-04T09:16:42.804Z,4.53
2017-12-04T09:22:11.724Z,4.87
2017-12-04T09:27:39.876Z,4.43
2017-12-04T09:33:08.010Z,4.43
2017-12-04T09:38:36.165Z,3.27
2017-12-04T09:44:04.313Z,5.10
2017-12-04T09:49:33.342Z,4.60
2017-12-04T09:55:03.489Z,3.67
2017-12-04T10:00:31.783Z,3.43
2017-12-04T10:05:59.935Z,5.37
2017-12-04T10:11:28.072Z,3.87
2017-12-04T10:17:01.228Z,3.20
2017-12-04T10:22:31.577Z,6.03
2017-12-04T10:27:59.768Z,5.20
2017-12-04T10:33:27.959Z,4.43
2017-12-04T10:38:56.384Z,4.40
2017-12-04T10:44:24.521Z,5.60
2017-12-04T10:49:52.650Z,5.57
2017-12-04T10:55:20.909Z,4.40
2017-12-04T11:00:49.828Z,5.03
2017-12-04T11:06:19.418Z,5.03
2017-12-04T11:11:49.003Z,6.33
2017-12-04T11:17:17.148Z,5.47
2017-12-04T11:22:45.361Z,5.00
2017-12-04T11:28:13.565Z,5.17
2017-12-04T11:33:41.758Z,4.73
2017-12-04T11:39:11.315Z,4.50
2017-12-04T11:44:40.131Z,4.83
2017-12-04T11:50:08.280Z,4.53
2017-12-04T11:56:04.596Z,4.77
2017-12-04T12:01:32.742Z,4.70
2017-12-04T12:07:00.900Z,4.13
2017-12-04T12:12:29.083Z,3.93
2017-12-04T12:17:57.292Z,3.57
2017-12-04T12:23:25.803Z,3.70
2017-12-04T12:28:54.003Z,4.43
2017-12-04T12:34:22.142Z,2.90
2017-12-04T12:39:50.973Z,3.60
2017-12-04T12:45:19.115Z,3.13
2017-12-04T12:50:48.029Z,3.80
2017-12-04T12:56:16.191Z,2.87
2017-12-04T13:01:44.763Z,2.93
2017-12-04T13:07:13.391Z,3.70
2017-12-04T13:12:42.237Z,3.60
2017-12-04T13:18:11.564Z,3.03
2017-12-04T13:23:39.711Z,3.90
2017-12-04T13:29:07.857Z,4.10
2017-12-04T13:34:53.925Z,5.83
2017-12-04T13:40:22.804Z,4.30
2017-12-04T13:45:51.364Z,4.43
2017-12-04T13:51:32.683Z,5.60
2017-12-04T13:57:01.694Z,3.07
2017-12-04T14:02:29.841Z,5.63
2017-12-04T14:07:57.977Z,5.00
2017-12-04T14:13:26.117Z,3.80
2017-12-04T14:18:55.110Z,5.73
2017-12-04T14:24:24.454Z,4.60
2017-12-04T14:29:52.595Z,4.70
2017-12-04T14:35:20.736Z,4.10
2017-12-04T14:40:48.866Z,5.37
2017-12-04T14:46:17.793Z,5.57
2017-12-04T14:51:46.704Z,6.30
2017-12-04T14:57:14.848Z,6.40
2017-12-04T15:02:42.985Z,6.70
2017-12-04T15:08:11.894Z,6.57
2017-12-04T15:13:40.038Z,5.03
2017-12-04T15:19:08.921Z,6.10
2017-12-04T15:24:37.068Z,6.10
2017-12-04T15:30:05.209Z,6.80
2017-12-04T15:35:34.110Z,4.40
2017-12-04T15:41:02.252Z,6.13
2017-12-04T15:46:30.454Z,6.40
2017-12-04T15:51:58.591Z,6.10
2017-12-04T15:57:26.908Z,6.70
2017-12-04T16:02:55.861Z,6.17
2017-12-04T16:08:24.826Z,6.37
2017-12-04T16:13:52.969Z,5.53
2017-12-04T16:19:21.119Z,4.97
2017-12-04T16:24:49.266Z,6.07
2017-12-04T16:30:18.225Z,6.20
2017-12-04T16:35:46.370Z,3.67
2017-12-04T16:41:14.521Z,6.07
2017-12-04T16:46:44.587Z,4.87
2017-12-04T16:52:12.768Z,4.23
2017-12-04T16:57:40.907Z,5.53
2017-12-04T17:03:09.031Z,3.87
2017-12-04T17:08:37.161Z,5.67
2017-12-04T17:14:05.322Z,6.30
2017-12-04T17:19:37.021Z,6.37
2017-12-04T17:25:05.165Z,6.70
2017-12-04T17:30:34.252Z,6.03
2017-12-04T17:36:04.330Z,5.93
2017-12-04T17:41:35.203Z,4.83
2017-12-04T17:47:06.823Z,6.73
2017-12-04T17:52:36.008Z,7.07
2017-12-04T17:58:04.178Z,7.63
2017-12-04T18:03:33.103Z,6.40
2017-12-04T18:09:02.040Z,5.70
2017-12-04T18:14:31.211Z,6.37
2017-12-04T18:19:59.664Z,6.83
2017-12-04T18:25:31.443Z,7.50
2017-12-04T18:31:05.204Z,4.63
2017-12-04T18:36:35.002Z,4.80
2017-12-04T18:42:03.144Z,7.00
2017-12-04T18:47:41.184Z,5.90
2017-12-04T18:53:09.452Z,7.83
2017-12-04T18:58:37.614Z,7.27
2017-12-04T19:04:25.667Z,6.50
2017-12-04T19:09:53.842Z,6.57
2017-12-04T19:15:27.441Z,7.30
2017-12-04T19:20:55.826Z,6.47
2017-12-04T19:26:26.757Z,5.37
2017-12-04T19:31:54.936Z,7.77
2017-12-04T19:37:25.132Z,8.27
2017-12-04T19:42:53.279Z,8.97
2017-12-04T19:48:22.397Z,6.97
2017-12-04T19:53:50.564Z,8.43
2017-12-04T19:59:18.823Z,7.97
2017-12-04T20:04:47.729Z,8.17
2017-12-04T20:10:17.841Z,7.47
2017-12-04T20:15:45.976Z,8.70
2017-12-04T20:21:18.152Z,8.20
2017-12-04T20:26:47.064Z,8.37
2017-12-04T20:32:15.207Z,8.50
2017-12-04T20:37:43.426Z,7.80
2017-12-04T20:43:12.466Z,8.50
2017-12-04T20:48:41.595Z,8.63
2017-12-04T20:54:10.527Z,7.00
2017-12-04T20:59:38.646Z,9.13
2017-12-04T21:05:06.778Z,7.90
2017-12-04T21:10:56.742Z,8.70
2017-12-04T21:16:57.765Z,6.83
2017-12-04T21:22:25.925Z,8.70
2017-12-04T21:27:59.882Z,8.20
2017-12-04T21:33:28.910Z,10.13
2017-12-04T21:39:02.772Z,8.27
2017-12-04T21:44:46.111Z,6.97
2017-12-04T21:50:16.209Z,8.70
2017-12-04T21:55:44.506Z,10.40
2017-12-04T22:01:12.679Z,8.90
2017-12-04T22:06:40.861Z,10.10
2017-12-04T22:12:13.508Z,6.53
2017-12-04T22:17:42.427Z,9.83
2017-12-04T22:23:10.613Z,9.50
2017-12-04T22:28:40.018Z,10.47
2017-12-04T22:34:08.209Z,9.87
2017-12-04T22:39:36.350Z,8.60
2017-12-04T22:45:05.307Z,9.83
2017-12-04T22:50:35.487Z,6.73
2017-12-04T22:56:03.635Z,11.20
2017-12-04T23:01:31.852Z,10.67
2017-12-04T23:06:59.985Z,6.00
2017-12-04T23:12:28.182Z,9.60
2017-12-04T23:17:56.328Z,7.07
2017-12-04T23:23:24.686Z,9.20
2017-12-04T23:28:56.419Z,7.70
2017-12-04T23:34:24.583Z,6.80
2017-12-04T23:39:53.831Z,7.17
2017-12-04T23:45:21.996Z,8.47
2017-12-04T23:50:50.151Z,7.93
2017-12-04T23:56:19.226Z,8.03
